Terminal Aerodrome Forecast
Issued by NWS

Home | Current Version | Previous Version | Text Only | Print | Product List | Glossary On
Versions: 1 2 3 4 5 6 7 8 9 10 11 12 13 14
000
FTUS44 KEPZ 072338
TAFLRU
TAF
KLRU 072338Z 0800/0824 01010G20KT P6SM VCTS SCT070CB BKN100 BKN200
      TEMPO 0801/0803 VRB35G45KT 4SM TSRA BKN040CB OVC080
     FM080400 06008KT P6SM VCTS BKN050CB BKN120
     FM081700 25008KT P6SM VCTS BKN050CB BKN200=

USA.gov is the U.S. government's official web portal to all federal, state and local government web resources and services.